createdAt,value
2018-05-23T00:01:34.441Z,4.56
2018-05-23T00:07:29.413Z,10.04
2018-05-23T00:13:24.436Z,9.69
2018-05-23T00:19:19.392Z,8.26
2018-05-23T00:25:14.420Z,7.57
2018-05-23T00:31:09.367Z,7.12
2018-05-23T00:37:04.370Z,5.95
2018-05-23T00:42:59.392Z,8.7
2018-05-23T00:48:54.553Z,6.46
2018-05-23T00:54:49.434Z,5.82
2018-05-23T01:00:44.407Z,9.8
2018-05-23T01:06:39.420Z,5.12
2018-05-23T01:12:34.455Z,7.08
2018-05-23T01:18:29.466Z,5.28
2018-05-23T01:24:24.460Z,6.87
2018-05-23T01:30:19.396Z,4.5
2018-05-23T01:36:14.482Z,7.9
2018-05-23T01:42:09.427Z,15.08
2018-05-23T01:48:04.403Z,7.23
2018-05-23T01:53:59.461Z,9.02
2018-05-23T01:59:54.455Z,11.61
2018-05-23T02:05:49.724Z,8.73
2018-05-23T02:11:44.429Z,7.68
2018-05-23T02:17:39.424Z,7.63
2018-05-23T02:23:34.461Z,6.85
2018-05-23T02:29:29.465Z,9.57
2018-05-23T02:35:24.436Z,7.36
2018-05-23T02:41:19.411Z,6.85
2018-05-23T02:47:14.455Z,8.1
2018-05-23T02:53:09.413Z,8.07
2018-05-23T02:59:04.428Z,9.58
2018-05-23T03:04:59.494Z,6.47
2018-05-23T03:10:54.476Z,7.09
2018-05-23T03:16:49.459Z,8.02
2018-05-23T03:22:44.431Z,7.23
2018-05-23T03:28:39.446Z,8.13
2018-05-23T03:34:34.455Z,10.15
2018-05-23T03:40:29.480Z,5.92
2018-05-23T03:46:24.437Z,7.33
2018-05-23T03:52:19.457Z,10.79
2018-05-23T03:58:14.489Z,8.42
2018-05-23T04:04:09.518Z,11.45
2018-05-23T04:10:04.486Z,16.5
2018-05-23T04:15:59.480Z,10.06
2018-05-23T04:21:54.434Z,7.53
2018-05-23T04:27:49.448Z,7.75
2018-05-23T04:33:44.478Z,8.58
2018-05-23T04:39:39.493Z,9.4
2018-05-23T04:45:34.501Z,8.74
2018-05-23T04:51:29.581Z,11.23
2018-05-23T04:57:24.489Z,17.17
2018-05-23T05:03:19.496Z,19.89
2018-05-23T05:09:14.477Z,24.96
2018-05-23T05:15:09.573Z,24.27
2018-05-23T05:21:04.524Z,15.34
2018-05-23T05:26:59.478Z,16.2
2018-05-23T05:32:54.530Z,9.48
2018-05-23T05:38:49.533Z,10.77
2018-05-23T05:44:44.561Z,10.03
2018-05-23T05:50:39.507Z,10.8
2018-05-23T05:56:34.484Z,16.41
2018-05-23T06:02:29.465Z,13.81
2018-05-23T06:08:24.519Z,20.15
2018-05-23T06:14:19.511Z,25.22
2018-05-23T06:20:14.567Z,23.29
2018-05-23T06:26:09.513Z,29.03
2018-05-23T06:32:04.571Z,29.59
2018-05-23T06:37:59.498Z,28.03
2018-05-23T06:43:54.523Z,25.8
2018-05-23T06:49:49.499Z,23.3
2018-05-23T06:55:44.631Z,14.45
2018-05-23T07:01:39.503Z,13.83
2018-05-23T07:07:34.532Z,12.18
2018-05-23T07:13:29.514Z,7.02
2018-05-23T07:19:24.547Z,5.37
2018-05-23T07:25:19.568Z,4.58
2018-05-23T07:31:14.501Z,6.55
2018-05-23T07:37:09.506Z,7.38
2018-05-23T07:43:04.522Z,6.93
2018-05-23T07:48:59.524Z,4.61
2018-05-23T07:54:54.504Z,6.1
2018-05-23T08:00:49.589Z,8.16
2018-05-23T08:06:44.523Z,5.42
2018-05-23T08:12:39.588Z,5.25
2018-05-23T08:18:34.504Z,6.97
2018-05-23T08:24:29.578Z,7.38
2018-05-23T08:30:24.524Z,6.97
2018-05-23T08:36:19.551Z,5.73
2018-05-23T08:42:14.514Z,10.8
2018-05-23T08:48:09.502Z,6.72
2018-05-23T08:54:04.525Z,4.99
2018-05-23T08:59:59.588Z,8.15
2018-05-23T09:05:54.550Z,8.87
2018-05-23T09:11:49.563Z,4.23
2018-05-23T09:17:44.563Z,7.97
2018-05-23T09:23:39.524Z,5.53
2018-05-23T09:29:34.560Z,3.96
2018-05-23T09:35:29.581Z,8.16
2018-05-23T09:41:24.549Z,7.36
2018-05-23T09:47:19.555Z,6.28
2018-05-23T09:53:14.633Z,4.27
2018-05-23T09:59:09.534Z,5.7
2018-05-23T10:05:04.553Z,4.27
2018-05-23T10:10:59.542Z,6.43
2018-05-23T10:16:54.579Z,7.09
2018-05-23T10:22:49.585Z,6.89
2018-05-23T10:28:44.558Z,5.53
2018-05-23T10:34:39.596Z,8.36
2018-05-23T10:40:34.572Z,7.68
2018-05-23T10:46:29.563Z,5.24
2018-05-23T10:52:24.561Z,8.55
2018-05-23T10:58:19.594Z,5.98
2018-05-23T11:04:14.615Z,8.07
2018-05-23T11:10:09.604Z,5.57
2018-05-23T11:16:04.620Z,10.33
2018-05-23T11:21:59.603Z,8.08
2018-05-23T11:27:54.604Z,5.18
2018-05-23T11:33:49.613Z,8.65
2018-05-23T11:39:44.591Z,10.93
2018-05-23T11:45:39.657Z,7.83
2018-05-23T11:51:34.582Z,8.35
2018-05-23T11:57:29.579Z,5.73
2018-05-23T12:03:24.607Z,11.09
2018-05-23T12:09:19.621Z,6.69
2018-05-23T12:15:14.574Z,6.15
2018-05-23T12:21:09.609Z,9.61
2018-05-23T12:27:04.642Z,8.48
2018-05-23T12:32:59.590Z,6.03
2018-05-23T12:38:54.629Z,5.52
2018-05-23T12:44:49.651Z,7.13
2018-05-23T12:50:44.594Z,7.72
2018-05-23T12:56:39.649Z,5.93
2018-05-23T13:02:34.657Z,7.97
2018-05-23T13:08:29.659Z,8.19
2018-05-23T13:14:24.640Z,7.7
2018-05-23T13:20:19.643Z,4.11
2018-05-23T13:26:14.649Z,4.28
2018-05-23T13:32:09.602Z,2.93
2018-05-23T13:38:04.682Z,4.9
2018-05-23T13:43:59.664Z,5.05
2018-05-23T13:49:54.616Z,4.63
2018-05-23T13:55:49.624Z,3.36
2018-05-23T14:01:44.690Z,2.96
2018-05-23T14:07:39.627Z,4.8
2018-05-23T14:13:34.688Z,6.26
2018-05-23T14:19:29.746Z,5.38
2018-05-23T14:25:24.669Z,3.85
2018-05-23T14:31:19.660Z,4.8
2018-05-23T14:37:14.664Z,4.77
2018-05-23T14:43:09.675Z,4.03
2018-05-23T14:49:04.683Z,5.37
2018-05-23T14:54:59.655Z,5.65
2018-05-23T15:00:54.659Z,2.82
2018-05-23T15:06:49.674Z,8.73
2018-05-23T15:12:44.666Z,9.33
2018-05-23T15:18:39.669Z,3.92
2018-05-23T15:24:34.683Z,4.68
2018-05-23T15:30:29.676Z,5
2018-05-23T15:36:24.761Z,4.13
2018-05-23T15:42:19.694Z,4.81
2018-05-23T15:48:14.678Z,6.96
2018-05-23T15:54:09.832Z,4.81
2018-05-23T16:00:04.751Z,4.14
2018-05-23T16:05:59.871Z,6.95
2018-05-23T16:11:54.739Z,4.1
2018-05-23T16:17:55.947Z,4.05
2018-05-23T16:23:44.731Z,8.4
2018-05-23T16:29:39.784Z,3.81
2018-05-23T16:35:34.698Z,4.8
2018-05-23T16:41:29.696Z,6.21
2018-05-23T16:47:25.684Z,7.76
2018-05-23T16:53:19.754Z,6.26
2018-05-23T16:59:14.694Z,4.27
2018-05-23T17:05:09.704Z,5.36
2018-05-23T17:11:04.696Z,3.06
2018-05-23T17:16:59.745Z,3.97
2018-05-23T17:22:54.783Z,5.67
2018-05-23T17:28:49.735Z,4.82
2018-05-23T17:34:44.725Z,4
2018-05-23T17:40:39.738Z,7.7
2018-05-23T17:46:34.768Z,6.64
2018-05-23T17:52:30.740Z,6.03
2018-05-23T17:58:24.773Z,6.41
2018-05-23T18:04:19.757Z,5.15
2018-05-23T18:10:14.763Z,5.27
2018-05-23T18:16:09.755Z,5.84
2018-05-23T18:22:04.795Z,5.41
2018-05-23T18:27:59.745Z,8.17
2018-05-23T18:33:54.778Z,6.2
2018-05-23T18:39:49.759Z,4.59
2018-05-23T18:45:44.764Z,3.21
2018-05-23T18:51:39.740Z,5.57
2018-05-23T18:57:34.750Z,5.37
2018-05-23T19:03:29.742Z,4
2018-05-23T19:09:24.785Z,4.6
2018-05-23T19:15:19.780Z,5.16
2018-05-23T19:21:14.755Z,6.41
2018-05-23T19:27:09.731Z,5.23
2018-05-23T19:33:04.795Z,4.99
2018-05-23T19:38:59.852Z,6.56
2018-05-23T19:44:54.740Z,9.59
2018-05-23T19:50:49.777Z,7.33
2018-05-23T19:56:44.781Z,5.35
2018-05-23T20:02:39.764Z,3.72
2018-05-23T20:08:34.755Z,7.35
2018-05-23T20:14:29.829Z,4.32
2018-05-23T20:20:24.801Z,8.97
2018-05-23T20:26:19.842Z,4.66
2018-05-23T20:32:14.809Z,3.71
2018-05-23T20:38:09.817Z,7.65
2018-05-23T20:44:04.769Z,6.79
2018-05-23T20:49:59.766Z,4.73
2018-05-23T20:55:54.803Z,5.76
2018-05-23T21:01:49.792Z,4.25
2018-05-23T21:07:44.770Z,3.88
2018-05-23T21:13:39.765Z,4.73
2018-05-23T21:19:34.968Z,5.41
2018-05-23T21:25:29.776Z,3.6
2018-05-23T21:31:24.769Z,6.34
2018-05-23T21:37:20.791Z,3.99
2018-05-23T21:43:14.763Z,5.15
2018-05-23T21:49:09.792Z,7.63
2018-05-23T21:55:04.773Z,7.52
2018-05-23T22:00:59.860Z,4.43
2018-05-23T22:06:54.794Z,3.79
2018-05-23T22:12:49.802Z,4.99
2018-05-23T22:18:44.795Z,6.6
2018-05-23T22:24:39.835Z,5.4
2018-05-23T22:30:34.929Z,4.92
2018-05-23T22:36:29.800Z,6.41
2018-05-23T22:42:24.812Z,9.71
2018-05-23T22:48:19.875Z,6.37
2018-05-23T22:54:14.792Z,6.77
2018-05-23T23:00:09.803Z,4.7
2018-05-23T23:06:04.797Z,5.13
2018-05-23T23:11:59.788Z,8.78
2018-05-23T23:17:54.850Z,7.91
2018-05-23T23:23:49.856Z,6.97
2018-05-23T23:29:44.824Z,6.81
2018-05-23T23:35:39.839Z,5.9
2018-05-23T23:41:34.809Z,7.73
2018-05-23T23:47:29.782Z,4.2
2018-05-23T23:53:24.821Z,8.48
2018-05-23T23:59:19.784Z,4.83
